Time;durP1;ratioP1;P1;durP2;ratioP2;P2;SDS_P1;SDS_P2;PMS_P1;PMS_P2;Temp;Humidity;BMP_temperature;BMP_pressure;BME280_temperature;BME280_humidity;BME280_pressure;Samples;Min_cycle;Max_cycle;Signal;HPM_P1;HPM_P2
2022/06/30 00:01:27;;;;;;;3.40;2.75;;;;;;;23.78;55.93;99290.66;4957861;28;20031;-85
2022/06/30 00:03:52;;;;;;;2.60;2.40;;;;;;;23.76;56.30;99290.06;4962400;28;20037;-86
2022/06/30 00:06:17;;;;;;;2.97;2.78;;;;;;;23.73;55.79;99282.38;4979088;28;20078;-86
2022/06/30 00:08:42;;;;;;;2.90;2.70;;;;;;;23.62;55.91;99281.28;4970973;28;20377;-85
2022/06/30 00:11:08;;;;;;;2.90;2.58;;;;;;;23.60;55.92;99286.16;4984090;28;20035;-86
2022/06/30 00:13:35;;;;;;;3.42;2.60;;;;;;;23.67;55.33;99284.16;4959333;28;20042;-86
2022/06/30 00:16:01;;;;;;;3.13;2.63;;;;;;;23.71;55.60;99288.06;4957207;28;20023;-87
2022/06/30 00:18:26;;;;;;;2.95;2.45;;;;;;;23.57;55.98;99285.81;4957000;28;20100;-86
2022/06/30 00:20:52;;;;;;;2.80;2.60;;;;;;;23.57;56.26;99286.63;4960692;28;20287;-86
2022/06/30 00:23:17;;;;;;;3.20;2.80;;;;;;;23.61;56.51;99293.28;4973776;28;20298;-86
2022/06/30 00:25:42;;;;;;;2.97;2.40;;;;;;;23.58;56.65;99291.03;4972238;28;20034;-86
2022/06/30 00:28:07;;;;;;;2.67;2.22;;;;;;;23.41;56.72;99290.06;4978061;28;20084;-86
2022/06/30 00:30:33;;;;;;;5.65;2.50;;;;;;;23.44;56.15;99295.88;4973342;28;20039;-86
2022/06/30 00:32:58;;;;;;;2.55;2.35;;;;;;;23.52;56.13;99295.50;4978063;28;20069;-87
2022/06/30 00:35:23;;;;;;;2.63;2.42;;;;;;;23.50;56.76;99289.47;4977998;28;20066;-86
2022/06/30 00:37:49;;;;;;;2.70;2.50;;;;;;;23.52;56.05;99283.75;4988652;28;20114;-86
2022/06/30 00:40:14;;;;;;;2.50;2.30;;;;;;;23.45;56.32;99281.16;4989194;28;20533;-86
2022/06/30 00:42:40;;;;;;;2.75;2.30;;;;;;;23.52;56.75;99276.41;4970485;28;20089;-86
2022/06/30 00:45:05;;;;;;;3.05;2.70;;;;;;;23.45;56.62;99281.16;4959323;28;20172;-86
2022/06/30 00:47:31;;;;;;;4.25;2.58;;;;;;;23.46;56.26;99277.34;4969955;28;20140;-86
2022/06/30 00:49:56;;;;;;;4.47;2.47;;;;;;;23.42;56.74;99273.44;4954816;28;20082;-86
2022/06/30 00:52:24;;;;;;;2.67;2.47;;;;;;;23.41;56.57;99276.41;4970488;28;20019;-86
2022/06/30 00:54:51;;;;;;;3.03;2.70;;;;;;;23.39;55.88;99279.38;4974424;28;20057;-86
2022/06/30 00:57:17;;;;;;;3.25;2.33;;;;;;;23.41;56.30;99284.59;4973030;28;20069;-86
2022/06/30 00:59:45;;;;;;;5.05;2.60;;;;;;;23.34;55.84;99278.44;4981294;28;20292;-86
2022/06/30 01:02:11;;;;;;;3.40;2.35;;;;;;;23.29;56.14;99283.78;4993204;28;20041;-86
2022/06/30 01:04:37;;;;;;;3.03;2.50;;;;;;;23.34;56.09;99282.00;4957102;28;20034;-86
2022/06/30 01:07:03;;;;;;;3.90;2.65;;;;;;;23.33;55.87;99285.78;4970684;28;20234;-86
2022/06/30 01:14:58;;;;;;;3.28;2.70;;;;;;;23.18;56.15;99283.53;4972477;28;20105;-86
2022/06/30 01:17:24;;;;;;;2.47;2.28;;;;;;;23.16;56.16;99272.00;4962965;28;20153;-86
2022/06/30 01:19:56;;;;;;;2.65;2.45;;;;;;;23.17;56.21;99275.56;4957885;28;20379;-86
2022/06/30 01:22:21;;;;;;;4.05;2.72;;;;;;;23.14;56.28;99285.06;4970958;28;20029;-87
2022/06/30 01:24:47;;;;;;;3.22;2.38;;;;;;;23.14;56.44;99282.31;4962671;28;20043;-86
2022/06/30 01:27:12;;;;;;;2.88;2.60;;;;;;;23.17;56.63;99283.75;4965116;28;20121;-86
2022/06/30 01:29:37;;;;;;;2.70;2.50;;;;;;;23.17;56.52;99283.75;4957420;28;20030;-86
2022/06/30 01:32:03;;;;;;;2.58;2.35;;;;;;;23.14;56.76;99279.59;4952748;28;20096;-86
2022/06/30 01:34:29;;;;;;;2.83;2.50;;;;;;;23.12;57.08;99283.63;4992356;28;20109;-86
2022/06/30 01:36:54;;;;;;;2.72;2.47;;;;;;;23.09;57.12;99289.56;4955042;28;20117;-87
2022/06/30 01:39:19;;;;;;;2.80;2.60;;;;;;;23.10;56.94;99293.94;4971547;28;20057;-87
2022/06/30 01:41:44;;;;;;;2.80;2.45;;;;;;;23.08;56.61;99304.25;4985705;28;20062;-86
2022/06/30 01:44:11;;;;;;;2.53;2.33;;;;;;;23.09;57.15;99303.19;4987461;28;20026;-87
2022/06/30 01:46:36;;;;;;;2.67;2.47;;;;;;;22.96;56.70;99298.78;4958881;28;20019;-86
2022/06/30 01:49:02;;;;;;;2.60;2.30;;;;;;;22.98;57.26;99304.00;4959507;28;20034;-86
2022/06/30 01:51:27;;;;;;;2.92;2.55;;;;;;;22.93;57.69;99291.06;4968894;28;20042;-86
2022/06/30 01:53:53;;;;;;;2.70;2.50;;;;;;;22.97;57.38;99291.44;4969875;28;20027;-85
2022/06/30 01:56:18;;;;;;;3.70;2.50;;;;;;;22.94;57.76;99298.19;4971472;28;20122;-86
2022/06/30 01:58:44;;;;;;;2.53;2.33;;;;;;;22.91;57.66;99293.22;4971203;28;20035;-85
2022/06/30 02:01:09;;;;;;;2.95;2.67;;;;;;;22.87;57.26;99298.31;4989425;28;20026;-87
2022/06/30 02:03:34;;;;;;;3.22;2.70;;;;;;;22.85;58.69;99294.97;4989987;28;20435;-86
2022/06/30 02:06:00;;;;;;;2.78;2.50;;;;;;;22.82;58.44;99295.44;4973102;28;20554;-86
2022/06/30 02:08:25;;;;;;;3.65;2.30;;;;;;;22.77;57.88;99295.28;4972716;28;20116;-86
2022/06/30 02:10:50;;;;;;;4.18;2.50;;;;;;;22.71;58.12;99298.94;4974781;28;20048;-86
2022/06/30 02:13:16;;;;;;;2.80;2.47;;;;;;;22.71;58.03;99295.38;4957413;28;20137;-86
2022/06/30 02:15:41;;;;;;;3.65;2.67;;;;;;;22.67;58.57;99300.44;4971231;28;20465;-87
2022/06/30 02:18:08;;;;;;;2.90;2.70;;;;;;;22.65;58.72;99301.75;4970390;28;20023;-86
2022/06/30 02:20:34;;;;;;;3.95;2.58;;;;;;;22.60;58.40;99297.00;4973854;28;20050;-87
2022/06/30 02:23:02;;;;;;;3.72;2.50;;;;;;;22.56;58.46;99296.63;4972985;28;20050;-85
2022/06/30 02:25:29;;;;;;;2.75;2.30;;;;;;;22.54;58.83;99298.75;4975675;28;20118;-87
2022/06/30 02:27:55;;;;;;;3.53;2.93;;;;;;;22.58;58.32;99299.13;4977312;28;20536;-86
2022/06/30 02:30:20;;;;;;;2.72;2.53;;;;;;;22.58;59.08;99307.28;4955838;28;20026;-86
2022/06/30 02:32:46;;;;;;;3.10;2.53;;;;;;;22.56;58.36;99312.16;4971174;28;20034;-86
2022/06/30 02:35:12;;;;;;;2.55;2.35;;;;;;;22.50;58.73;99307.63;4956761;28;20477;-86
2022/06/30 02:37:37;;;;;;;2.65;2.40;;;;;;;22.52;58.72;99310.94;4957592;28;20030;-86
2022/06/30 02:40:03;;;;;;;2.90;2.70;;;;;;;22.56;58.62;99306.69;4986466;28;20027;-86
2022/06/30 02:42:28;;;;;;;6.68;2.30;;;;;;;22.51;58.24;99304.66;4977697;28;20121;-86
2022/06/30 02:44:54;;;;;;;2.58;2.38;;;;;;;22.47;58.72;99313.53;4967847;28;20037;-85
2022/06/30 02:47:19;;;;;;;3.00;2.70;;;;;;;22.42;58.72;99297.88;4988755;28;20154;-86
2022/06/30 02:49:44;;;;;;;4.35;2.53;;;;;;;22.36;58.05;99301.53;4991531;28;20145;-86
2022/06/30 02:52:10;;;;;;;3.30;2.50;;;;;;;22.32;58.73;99297.59;4967597;28;20385;-86
2022/06/30 02:54:35;;;;;;;2.38;2.00;;;;;;;22.37;58.26;99305.91;4986808;28;20449;-86
2022/06/30 02:57:00;;;;;;;2.70;2.03;;;;;;;22.40;59.00;99296.47;4987183;28;20492;-86
2022/06/30 02:59:26;;;;;;;3.45;2.22;;;;;;;22.34;58.63;99291.94;4982101;28;20474;-86
2022/06/30 03:01:51;;;;;;;3.92;2.28;;;;;;;22.38;58.44;99296.69;4967512;28;20038;-86
2022/06/30 03:04:17;;;;;;;2.50;2.30;;;;;;;22.30;58.26;99291.56;4986357;28;20098;-85
2022/06/30 03:06:42;;;;;;;3.38;2.25;;;;;;;22.23;59.11;99290.78;4970067;28;20037;-85
2022/06/30 03:09:08;;;;;;;2.13;1.83;;;;;;;22.19;59.12;99282.25;4952915;28;20090;-86
2022/06/30 03:11:33;;;;;;;4.32;2.10;;;;;;;22.17;59.02;99286.25;4973422;28;20149;-86
2022/06/30 03:13:58;;;;;;;2.40;2.20;;;;;;;22.17;58.73;99292.53;4969334;28;20037;-85
2022/06/30 03:16:24;;;;;;;3.50;2.00;;;;;;;22.15;58.66;99291.94;4974826;28;20033;-86
2022/06/30 03:18:49;;;;;;;2.72;2.28;;;;;;;22.14;58.73;99293.00;4973085;28;20030;-87
2022/06/30 03:21:14;;;;;;;2.22;1.80;;;;;;;22.14;58.73;99295.72;4973953;28;20461;-86
2022/06/30 03:23:40;;;;;;;2.22;2.03;;;;;;;22.13;58.46;99291.34;4995529;28;20050;-86
2022/06/30 03:26:05;;;;;;;3.92;2.08;;;;;;;22.14;58.80;99290.28;4993181;28;20389;-86
2022/06/30 03:28:31;;;;;;;2.80;2.00;;;;;;;22.14;58.24;99284.00;4980144;28;20080;-86
2022/06/30 03:30:57;;;;;;;3.45;2.03;;;;;;;22.07;58.95;99286.81;4993436;28;20056;-86
2022/06/30 03:33:22;;;;;;;3.17;2.10;;;;;;;22.06;58.93;99282.41;4975795;28;20089;-86
2022/06/30 03:35:48;;;;;;;2.28;1.98;;;;;;;22.03;58.88;99285.59;4974276;28;20030;-85
2022/06/30 03:38:14;;;;;;;2.17;2.00;;;;;;;22.03;58.81;99282.88;4989944;28;20077;-85
2022/06/30 03:40:39;;;;;;;3.70;2.08;;;;;;;22.02;58.92;99272.19;4972515;28;20507;-86
2022/06/30 03:43:05;;;;;;;3.88;2.13;;;;;;;22.03;58.39;99271.13;4974847;28;20066;-85
2022/06/30 03:45:31;;;;;;;2.65;2.00;;;;;;;22.01;58.57;99268.63;4991517;28;20491;-86
2022/06/30 03:47:59;;;;;;;3.42;2.22;;;;;;;22.02;58.36;99274.91;4972469;28;20039;-86
2022/06/30 03:50:24;;;;;;;;;;;;;;;22.00;58.25;99269.69;4954155;28;20547;-85
2022/06/30 03:52:50;;;;;;;2.47;2.00;;;;;;;22.00;58.58;99264.25;4976350;28;19917;-85
2022/06/30 03:55:15;;;;;;;2.38;1.90;;;;;;;22.00;59.28;99265.06;4989242;28;20034;-85
2022/06/30 03:57:40;;;;;;;2.42;2.10;;;;;;;22.01;59.06;99265.91;4987632;28;20033;-86
2022/06/30 04:00:06;;;;;;;2.67;2.22;;;;;;;21.98;59.10;99272.66;4974719;28;20427;-86
2022/06/30 04:02:32;;;;;;;3.20;2.30;;;;;;;21.99;58.66;99271.59;4971356;28;20038;-86
2022/06/30 04:04:58;;;;;;;2.35;2.00;;;;;;;21.99;58.72;99278.91;4960428;28;20500;-86
2022/06/30 04:07:23;;;;;;;3.05;1.90;;;;;;;21.95;58.71;99272.28;4970972;28;20363;-86
2022/06/30 04:09:49;;;;;;;4.72;2.10;;;;;;;21.93;59.42;99277.13;4960426;28;20034;-86
2022/06/30 04:12:14;;;;;;;2.75;1.92;;;;;;;21.89;58.86;99275.91;4986807;28;20045;-85
2022/06/30 04:14:39;;;;;;;2.75;1.98;;;;;;;21.85;59.01;99275.53;4986472;28;20026;-86
2022/06/30 04:17:05;;;;;;;2.33;1.70;;;;;;;21.86;58.92;99273.66;4971322;28;20042;-86
2022/06/30 04:19:30;;;;;;;1.98;1.83;;;;;;;21.85;58.77;99274.69;4972486;28;20030;-86
2022/06/30 04:21:56;;;;;;;2.63;2.10;;;;;;;21.86;58.85;99277.19;4976880;28;20373;-86
2022/06/30 04:24:21;;;;;;;1.73;1.63;;;;;;;21.86;58.42;99274.47;4971004;28;20551;-86
2022/06/30 04:26:46;;;;;;;1.65;1.55;;;;;;;21.87;58.64;99275.31;4973450;28;20031;-86
2022/06/30 04:29:12;;;;;;;2.50;1.63;;;;;;;21.87;58.96;99270.69;4994194;28;20038;-86
2022/06/30 04:34:21;;;;;;;2.30;1.67;;;;;;;21.92;59.03;99267.28;4989648;28;20041;-86
2022/06/30 04:36:47;;;;;;;2.55;1.90;;;;;;;21.90;58.59;99267.50;4992290;28;20022;-85
2022/06/30 04:39:12;;;;;;;1.90;1.60;;;;;;;21.88;58.74;99269.63;4973530;28;20061;-86
2022/06/30 04:41:37;;;;;;;2.38;2.17;;;;;;;21.89;59.19;99279.47;4971918;28;20113;-86
2022/06/30 04:44:03;;;;;;;2.08;1.80;;;;;;;21.88;59.92;99266.91;4991056;28;20058;-85
2022/06/30 04:46:28;;;;;;;2.45;1.73;;;;;;;21.90;59.79;99255.78;4956603;28;20074;-86
2022/06/30 04:48:54;;;;;;;2.92;1.75;;;;;;;21.86;59.84;99257.31;4970162;28;20030;-85
2022/06/30 04:51:20;;;;;;;2.70;1.92;;;;;;;21.88;59.56;99256.03;4974378;28;20022;-86
2022/06/30 04:53:45;;;;;;;2.05;1.80;;;;;;;21.89;59.87;99257.69;4977370;28;20388;-86
2022/06/30 04:56:11;;;;;;;2.20;1.80;;;;;;;21.88;60.14;99263.34;4973978;28;20027;-84
2022/06/30 04:58:36;;;;;;;3.72;1.67;;;;;;;21.87;60.57;99262.53;4968936;28;20192;-87
2022/06/30 05:01:02;;;;;;;3.85;1.80;;;;;;;21.88;59.87;99263.34;4969833;28;20030;-86
2022/06/30 05:03:28;;;;;;;2.10;1.70;;;;;;;21.89;60.58;99262.28;4960394;28;20913;-86
2022/06/30 05:05:53;;;;;;;1.60;1.50;;;;;;;21.91;60.14;99260.19;4976098;28;20077;-85
2022/06/30 05:08:19;;;;;;;2.55;1.63;;;;;;;21.95;60.00;99258.66;4991843;28;20237;-86
2022/06/30 05:10:45;;;;;;;2.08;1.60;;;;;;;21.97;59.42;99259.25;4975778;28;20030;-86
2022/06/30 05:13:10;;;;;;;2.97;1.60;;;;;;;21.95;59.81;99259.50;4969437;28;20031;-86
2022/06/30 05:15:35;;;;;;;2.03;1.52;;;;;;;21.94;59.72;99260.56;4992777;28;20061;-86
2022/06/30 05:18:01;;;;;;;1.60;1.50;;;;;;;21.96;60.12;99258.44;4952920;28;20134;-86
2022/06/30 05:20:26;;;;;;;2.85;1.85;;;;;;;21.95;59.67;99259.50;4968076;28;20540;-86
2022/06/30 05:22:52;;;;;;;2.88;1.42;;;;;;;21.96;61.78;99272.03;4971886;28;20070;-86
2022/06/30 05:28:01;;;;;;;2.67;2.20;;;;;;;21.86;62.34;99281.81;4991600;28;20499;-85
2022/06/30 05:30:26;;;;;;;2.20;2.00;;;;;;;21.78;63.18;99277.50;4977198;28;20027;-86
2022/06/30 05:32:52;;;;;;;2.30;1.90;;;;;;;21.83;62.27;99274.09;4967887;28;20026;-85
2022/06/30 05:35:17;;;;;;;4.05;2.03;;;;;;;21.82;62.56;99277.88;4968967;28;20494;-85
2022/06/30 05:37:42;;;;;;;2.05;1.73;;;;;;;21.82;62.14;99281.44;4968939;28;20141;-85
2022/06/30 05:40:08;;;;;;;2.83;1.80;;;;;;;21.94;63.09;99284.22;4967841;28;20485;-85
2022/06/30 05:42:34;;;;;;;2.75;2.10;;;;;;;22.01;62.23;99282.25;4972724;28;20026;-85
2022/06/30 05:44:59;;;;;;;3.97;2.05;;;;;;;22.02;61.46;99281.19;4990355;28;20080;-85
2022/06/30 05:47:24;;;;;;;3.13;2.10;;;;;;;21.97;61.68;99284.59;4971864;28;20125;-86
2022/06/30 05:49:50;;;;;;;2.83;2.50;;;;;;;21.92;61.52;99283.63;4984322;28;20027;-86
2022/06/30 05:52:15;;;;;;;2.80;2.20;;;;;;;22.00;61.67;99278.69;4956221;28;20089;-85
2022/06/30 05:54:40;;;;;;;2.95;2.15;;;;;;;22.06;61.51;99284.31;4988251;28;20034;-85
2022/06/30 05:57:06;;;;;;;4.30;2.50;;;;;;;22.08;61.91;99279.47;4985351;28;20374;-86
2022/06/30 05:59:32;;;;;;;3.58;2.20;;;;;;;22.02;61.72;99285.81;4991668;28;20511;-85
2022/06/30 06:02:00;;;;;;;2.53;2.30;;;;;;;22.11;61.64;99287.19;4971754;28;20034;-85
2022/06/30 06:04:26;;;;;;;;;;;;;;;22.06;61.74;99289.75;4972694;28;20025;-86
2022/06/30 06:06:51;;;;;;;3.72;2.15;;;;;;;22.04;62.21;99287.25;4972165;28;20272;-85
2022/06/30 06:09:16;;;;;;;3.80;1.98;;;;;;;22.16;61.47;99296.31;4956943;28;20037;-85
2022/06/30 06:11:43;;;;;;;3.95;2.70;;;;;;;22.14;61.95;99292.16;4972748;28;20051;-86
2022/06/30 06:14:09;;;;;;;3.25;2.30;;;;;;;22.16;62.21;99288.16;4965737;28;20037;-85
2022/06/30 06:16:34;;;;;;;3.13;2.30;;;;;;;22.23;61.90;99291.66;4968106;28;20031;-86
2022/06/30 06:18:59;;;;;;;2.92;1.98;;;;;;;22.27;62.18;99294.75;4965163;28;20839;-85
2022/06/30 06:21:26;;;;;;;4.13;2.38;;;;;;;22.32;62.11;99291.31;4991428;28;20461;-86
2022/06/30 06:23:52;;;;;;;4.43;2.30;;;;;;;22.21;61.46;99292.91;4990649;28;20452;-85
2022/06/30 06:26:18;;;;;;;4.05;2.70;;;;;;;22.20;62.30;99300.25;4960201;28;20042;-86
2022/06/30 06:31:27;;;;;;;5.35;3.00;;;;;;;22.08;63.27;99307.53;4995048;28;20523;-85
2022/06/30 06:33:53;;;;;;;6.97;2.92;;;;;;;22.01;62.42;99304.03;4994771;28;20054;-85
2022/06/30 06:36:18;;;;;;;5.32;2.45;;;;;;;22.08;62.58;99302.09;4964949;28;20442;-86
2022/06/30 06:38:44;;;;;;;5.97;2.90;;;;;;;22.05;62.73;99304.44;4989693;28;20027;-85
2022/06/30 06:41:09;;;;;;;4.80;2.70;;;;;;;22.03;62.89;99301.94;4989388;28;20027;-84
2022/06/30 06:43:35;;;;;;;4.18;2.80;;;;;;;22.05;63.41;99299.00;4989382;28;20033;-85
2022/06/30 06:46:00;;;;;;;5.80;2.70;;;;;;;22.02;63.49;99307.59;4990639;28;20054;-85
2022/06/30 06:48:25;;;;;;;6.20;3.05;;;;;;;21.98;64.09;99312.66;4978376;28;20069;-85
2022/06/30 06:50:51;;;;;;;4.10;2.50;;;;;;;22.09;64.15;99319.25;4991429;28;20454;-86
2022/06/30 06:53:16;;;;;;;5.15;3.22;;;;;;;22.19;63.70;99320.38;4962855;28;20470;-86
2022/06/30 06:55:41;;;;;;;4.22;2.70;;;;;;;22.29;63.98;99319.88;4980706;28;20038;-86
2022/06/30 06:58:08;;;;;;;4.60;3.00;;;;;;;22.32;63.10;99318.56;4980152;28;20037;-85
2022/06/30 07:00:33;;;;;;;5.13;4.00;;;;;;;22.26;62.82;99323.88;4966610;28;20591;-86
2022/06/30 07:02:59;;;;;;;5.38;3.38;;;;;;;22.23;62.55;99335.25;4992199;28;20333;-85
2022/06/30 07:05:24;;;;;;;6.45;3.50;;;;;;;22.21;63.19;99331.88;4982163;28;20015;-87
2022/06/30 07:08:00;;;;;;;3.95;2.70;;;;;;;22.35;63.57;99340.75;4997180;28;20389;-85
2022/06/30 07:10:26;;;;;;;6.53;3.60;;;;;;;22.38;63.47;99334.00;4982182;28;20429;-85
2022/06/30 07:12:52;;;;;;;4.05;3.65;;;;;;;22.39;63.15;99338.38;4983260;28;20416;-84
2022/06/30 07:15:17;;;;;;;8.23;3.90;;;;;;;22.37;63.04;99343.25;4997431;28;20039;-84
2022/06/30 07:17:42;;;;;;;6.35;3.10;;;;;;;22.40;63.38;99353.69;4979784;28;20381;-84
2022/06/30 07:20:09;;;;;;;7.30;4.82;;;;;;;22.31;63.22;99345.00;4983879;28;20026;-84
2022/06/30 07:22:34;;;;;;;8.30;4.47;;;;;;;22.28;63.42;99350.91;4965456;28;20054;-84
2022/06/30 07:24:59;;;;;;;7.70;4.95;;;;;;;22.23;63.26;99357.03;4982902;28;20086;-84
2022/06/30 07:27:25;;;;;;;4.40;3.10;;;;;;;22.38;63.29;99353.06;4996300;28;20078;-83
2022/06/30 07:29:50;;;;;;;7.10;4.28;;;;;;;22.32;63.03;99356.72;4981635;28;20081;-84
2022/06/30 07:32:16;;;;;;;6.18;4.20;;;;;;;22.32;63.09;99351.28;4966641;28;20769;-84
2022/06/30 07:34:41;;;;;;;4.78;4.07;;;;;;;22.33;62.96;99356.50;4979988;28;20029;-83
2022/06/30 07:37:06;;;;;;;5.70;4.25;;;;;;;22.29;64.02;99360.75;4997236;28;20354;-84
2022/06/30 07:39:31;;;;;;;5.78;4.00;;;;;;;22.34;63.51;99357.31;4995364;28;20034;-84
2022/06/30 07:41:57;;;;;;;6.78;3.20;;;;;;;22.35;63.68;99357.09;4981701;28;20034;-83
2022/06/30 07:44:22;;;;;;;6.38;5.13;;;;;;;22.25;64.93;99354.91;4997671;28;20034;-83
2022/06/30 07:46:51;;;;;;;7.80;5.43;;;;;;;22.18;64.55;99354.13;4983395;28;20608;-84
2022/06/30 07:49:16;;;;;;;7.75;5.35;;;;;;;22.17;64.26;99354.38;4995685;28;20042;-85
2022/06/30 07:51:41;;;;;;;5.93;5.13;;;;;;;22.14;64.28;99357.53;4998316;28;20031;-84
2022/06/30 07:54:07;;;;;;;11.82;7.18;;;;;;;21.86;65.92;99353.44;4983250;28;20042;-83
2022/06/30 07:56:32;;;;;;;11.73;7.65;;;;;;;21.82;66.85;99351.38;4977273;28;20031;-84
2022/06/30 07:58:58;;;;;;;9.10;7.40;;;;;;;21.84;66.38;99347.38;4974491;28;20172;-84
2022/06/30 08:01:23;;;;;;;9.88;7.60;;;;;;;21.81;67.12;99347.00;4975688;28;20061;-83
2022/06/30 08:03:49;;;;;;;8.38;6.68;;;;;;;21.76;66.94;99346.81;4981541;28;20022;-83
2022/06/30 08:06:15;;;;;;;9.77;6.70;;;;;;;21.75;68.08;99351.44;4983542;28;20034;-84
2022/06/30 08:08:41;;;;;;;5.28;4.68;;;;;;;21.99;67.15;99358.72;4967836;28;20177;-86
2022/06/30 08:11:06;;;;;;;6.78;6.00;;;;;;;22.06;66.54;99358.69;4966157;28;20709;-82
2022/06/30 08:13:32;;;;;;;8.00;6.35;;;;;;;22.07;67.04;99357.63;4995879;28;20073;-82
2022/06/30 08:15:57;;;;;;;8.50;6.18;;;;;;;22.10;66.51;99362.63;4980040;28;20089;-89
2022/06/30 08:18:22;;;;;;;9.23;6.43;;;;;;;22.16;66.25;99358.97;4983068;28;20030;-83
2022/06/30 08:20:48;;;;;;;8.63;5.43;;;;;;;22.27;65.55;99360.97;4994955;28;20062;-83
2022/06/30 08:23:14;;;;;;;8.07;6.28;;;;;;;22.20;66.27;99356.63;4980019;28;20579;-82
2022/06/30 08:25:39;;;;;;;10.43;7.20;;;;;;;22.16;66.02;99360.88;4981737;28;20030;-88
2022/06/30 08:28:05;;;;;;;10.13;6.72;;;;;;;22.19;66.38;99358.53;4994685;28;20034;-82
2022/06/30 08:30:31;;;;;;;11.52;7.28;;;;;;;22.16;65.88;99361.69;4984605;28;20128;-83
2022/06/30 08:32:56;;;;;;;8.27;6.75;;;;;;;22.14;66.66;99360.25;4982873;28;20481;-85
2022/06/30 08:35:21;;;;;;;8.60;5.30;;;;;;;22.24;66.40;99361.44;4995988;28;20596;-84
2022/06/30 08:37:47;;;;;;;6.22;5.40;;;;;;;22.26;66.65;99363.91;4981500;28;20084;-83
2022/06/30 08:42:57;;;;;;;6.72;5.85;;;;;;;22.26;66.42;99369.38;4996533;28;20037;-87
2022/06/30 08:45:25;;;;;;;7.65;5.30;;;;;;;22.33;66.00;99361.94;4981797;28;20027;-83
2022/06/30 08:47:50;;;;;;;9.95;6.03;;;;;;;22.43;65.79;99361.41;4979414;28;20026;-88
2022/06/30 08:50:17;;;;;;;11.13;8.27;;;;;;;22.25;66.26;99359.53;5000673;28;20109;-84
2022/06/30 08:52:51;;;;;;;7.85;5.85;;;;;;;22.21;67.31;99361.84;4977167;28;20027;-86
2022/06/30 08:55:18;;;;;;;11.88;7.88;;;;;;;22.27;66.29;99371.03;4979927;28;20022;-86
2022/06/30 08:57:45;;;;;;;7.10;5.53;;;;;;;22.32;66.20;99375.78;4977859;28;20448;-86
2022/06/30 09:00:13;;;;;;;10.98;7.40;;;;;;;22.20;66.42;99370.25;4981249;28;20053;-86
2022/06/30 09:02:38;;;;;;;8.82;6.05;;;;;;;22.19;67.49;99369.41;4970703;28;20043;-83
2022/06/30 09:05:04;;;;;;;7.53;5.47;;;;;;;22.23;66.95;99369.78;4982222;28;20039;-87
2022/06/30 09:07:30;;;;;;;9.32;6.35;;;;;;;22.19;65.91;99363.97;4964073;28;20031;-83
2022/06/30 09:09:55;;;;;;;6.07;4.70;;;;;;;22.23;65.79;99364.34;4962724;28;20018;-84
2022/06/30 09:12:21;;;;;;;7.57;4.80;;;;;;;22.38;65.50;99370.25;4965135;28;20022;-84
2022/06/30 09:14:47;;;;;;;6.18;4.40;;;;;;;22.29;65.58;99366.19;4966209;28;20377;-84
2022/06/30 09:17:21;;;;;;;6.53;4.25;;;;;;;22.39;64.78;99366.47;4997750;28;20074;-83
2022/06/30 09:19:53;;;;;;;5.00;3.92;;;;;;;22.39;64.94;99355.56;4982816;28;20113;-83
2022/06/30 09:22:21;;;;;;;5.95;2.97;;;;;;;22.49;65.50;99355.84;4982632;28;20068;-84
2022/06/30 09:24:53;;;;;;;5.85;4.55;;;;;;;22.48;65.07;99347.91;4979220;28;20054;-83
2022/06/30 09:27:20;;;;;;;6.88;5.00;;;;;;;22.40;65.21;99353.69;4994975;28;20046;-84
2022/06/30 09:29:47;;;;;;;7.68;5.53;;;;;;;22.30;65.09;99337.88;4995527;28;20033;-84
2022/06/30 09:32:13;;;;;;;7.22;5.18;;;;;;;22.11;63.60;99342.50;4980736;28;20031;-84
2022/06/30 09:34:38;;;;;;;7.95;5.28;;;;;;;22.09;63.79;99336.44;4977550;28;20389;-88
2022/06/30 09:37:14;;;;;;;7.95;5.78;;;;;;;21.98;63.75;99331.72;4995401;28;21045;-84
2022/06/30 09:39:43;;;;;;;5.80;3.72;;;;;;;22.08;64.15;99348.41;4992899;28;20397;-83
2022/06/30 09:42:09;;;;;;;3.83;3.35;;;;;;;22.15;64.17;99346.41;4965564;28;20452;-82
2022/06/30 09:44:35;;;;;;;5.78;3.83;;;;;;;22.13;64.07;99334.91;4995537;28;20116;-81
2022/06/30 09:47:04;;;;;;;6.30;4.00;;;;;;;22.16;66.28;99341.81;4967438;28;20105;-86
2022/06/30 09:49:41;;;;;;;10.38;4.68;;;;;;;22.15;65.64;99338.25;4980281;28;20425;-82
2022/06/30 09:52:20;;;;;;;5.30;3.55;;;;;;;22.18;65.26;99339.69;4996519;28;20026;-84
2022/06/30 09:54:51;;;;;;;;;;;;;;;22.28;65.72;99348.19;4982128;28;20074;-85
2022/06/30 09:57:17;;;;;;;7.45;4.78;;;;;;;22.28;65.14;99343.56;4980439;28;19918;-83
2022/06/30 09:59:42;;;;;;;7.43;5.10;;;;;;;22.25;65.52;99343.19;4994849;28;20030;-82
2022/06/30 10:02:09;;;;;;;6.57;4.60;;;;;;;22.20;65.48;99343.84;4980719;28;20041;-83
2022/06/30 10:04:56;;;;;;;8.23;4.63;;;;;;;22.24;65.21;99350.53;4995371;28;20508;-82
2022/06/30 10:07:22;;;;;;;5.88;3.88;;;;;;;22.30;66.22;99351.50;4964116;28;20086;-82
2022/06/30 10:09:49;;;;;;;7.55;4.72;;;;;;;22.42;66.31;99352.38;4977187;28;20015;-83
2022/06/30 10:12:17;;;;;;;3.58;2.38;;;;;;;22.46;66.22;99348.13;4976406;28;20038;-83
2022/06/30 10:14:43;;;;;;;6.43;4.53;;;;;;;22.49;66.45;99344.13;4993069;28;20555;-83
2022/06/30 10:17:09;;;;;;;5.97;4.65;;;;;;;22.50;67.06;99349.34;4975400;28;20097;-84
2022/06/30 10:19:34;;;;;;;6.03;4.90;;;;;;;22.46;66.09;99360.94;4996036;28;20158;-82
2022/06/30 10:21:59;;;;;;;7.65;5.13;;;;;;;22.41;66.12;99361.63;4993838;28;20050;-86
2022/06/30 10:24:30;;;;;;;6.53;4.65;;;;;;;22.42;66.08;99366.00;4992348;28;20571;-83
2022/06/30 10:27:14;;;;;;;6.75;4.93;;;;;;;22.42;66.10;99362.47;4980083;28;20145;-84
2022/06/30 10:29:47;;;;;;;6.88;4.93;;;;;;;22.41;66.02;99367.06;4992408;28;20030;-82
2022/06/30 10:32:22;;;;;;;6.97;5.32;;;;;;;22.42;66.40;99357.00;4977082;28;20041;-83
2022/06/30 10:34:55;;;;;;;7.47;4.38;;;;;;;22.50;66.29;99348.50;4976171;28;20499;-86
2022/06/30 10:37:29;;;;;;;6.03;4.57;;;;;;;22.51;66.09;99355.63;4970987;28;20027;-83
2022/06/30 10:40:01;;;;;;;6.07;3.60;;;;;;;22.49;64.42;99353.13;4978618;28;20122;-83
2022/06/30 10:42:49;;;;;;;7.47;5.10;;;;;;;22.51;65.70;99348.28;4982480;28;20062;-82
2022/06/30 10:45:27;;;;;;;4.90;3.85;;;;;;;22.59;65.67;99350.69;4981128;28;20034;-83
2022/06/30 10:47:58;;;;;;;6.97;3.73;;;;;;;22.65;65.48;99343.47;4981234;28;20041;-83
2022/06/30 10:50:31;;;;;;;4.03;2.28;;;;;;;22.72;65.99;99341.50;4981851;28;20042;-83
2022/06/30 10:52:56;;;;;;;7.13;4.00;;;;;;;22.75;64.89;99343.78;4968450;28;20030;-82
2022/06/30 10:55:22;;;;;;;10.05;5.63;;;;;;;22.74;65.17;99344.84;4978532;28;20030;-83
2022/06/30 10:58:06;;;;;;;11.52;6.13;;;;;;;22.74;65.52;99338.56;4978375;28;20026;-83
2022/06/30 11:00:46;;;;;;;8.68;5.40;;;;;;;22.72;65.55;99329.78;4996511;28;20035;-84
2022/06/30 11:03:34;;;;;;;6.90;4.95;;;;;;;22.79;67.17;99334.06;4997546;28;20018;-83
2022/06/30 11:06:04;;;;;;;9.30;5.68;;;;;;;22.83;66.32;99338.00;4978461;28;20030;-83
2022/06/30 11:08:48;;;;;;;3.65;3.10;;;;;;;22.86;66.19;99334.81;4994841;28;20038;-86
2022/06/30 11:11:22;;;;;;;7.30;3.35;;;;;;;22.93;64.87;99337.44;4980909;28;20473;-83
2022/06/30 11:13:48;;;;;;;5.38;4.35;;;;;;;22.98;63.13;99329.38;4980642;28;20085;-83
2022/06/30 11:16:15;;;;;;;8.07;3.83;;;;;;;23.02;64.32;99314.22;4978082;28;20108;-87
2022/06/30 11:18:42;;;;;;;4.75;2.88;;;;;;;23.05;65.26;99316.47;4979321;28;20030;-84
2022/06/30 11:21:07;;;;;;;10.52;5.57;;;;;;;23.10;63.95;99319.31;4978719;28;20042;-83
2022/06/30 11:23:39;;;;;;;6.88;4.85;;;;;;;23.12;63.97;99322.66;4990331;28;20043;-83
2022/06/30 11:28:51;;;;;;;4.55;2.65;;;;;;;23.15;64.75;99318.63;4977990;28;20096;-82
2022/06/30 11:31:24;;;;;;;8.40;4.50;;;;;;;23.20;63.98;99310.59;4993952;28;20158;-84
2022/06/30 11:34:16;;;;;;;10.20;4.90;;;;;;;23.23;64.17;99302.75;4977527;28;20039;-84
2022/06/30 11:36:43;;;;;;;5.47;2.70;;;;;;;23.26;63.96;99297.91;4971006;28;20121;-83
2022/06/30 11:39:11;;;;;;;3.53;2.53;;;;;;;23.28;64.33;99296.59;4997240;28;20023;-83
2022/06/30 11:41:56;;;;;;;7.85;3.78;;;;;;;23.35;63.39;99293.75;4996394;28;20031;-82
2022/06/30 11:44:29;;;;;;;7.05;4.30;;;;;;;23.37;61.96;99291.59;4970970;28;20493;-83
2022/06/30 11:47:17;;;;;;;4.40;3.35;;;;;;;23.40;60.32;99283.78;4996946;28;20045;-84
2022/06/30 11:49:46;;;;;;;8.50;4.15;;;;;;;23.41;59.69;99270.97;4984282;28;20022;-82
2022/06/30 11:52:20;;;;;;;6.63;4.30;;;;;;;23.44;60.91;99267.75;4973673;28;20095;-83